sensor_id;sensor_type;location;lat;lon;timestamp;P1;durP1;ratioP1;P2;durP2;ratioP2
66327;SDS011;53133;52.862;6.602;2023-03-07T00:02:21;11.07;;;5.67;;
66327;SDS011;53133;52.862;6.602;2023-03-07T00:04:47;11.32;;;5.18;;
66327;SDS011;53133;52.862;6.602;2023-03-07T00:07:13;9.93;;;5.03;;
66327;SDS011;53133;52.862;6.602;2023-03-07T00:09:38;11.60;;;5.13;;
66327;SDS011;53133;52.862;6.602;2023-03-07T00:12:04;8.65;;;4.22;;
66327;SDS011;53133;52.862;6.602;2023-03-07T00:14:30;7.78;;;3.67;;
66327;SDS011;53133;52.862;6.602;2023-03-07T00:16:56;8.20;;;3.50;;
66327;SDS011;53133;52.862;6.602;2023-03-07T00:19:22;5.87;;;3.23;;
66327;SDS011;53133;52.862;6.602;2023-03-07T00:21:48;4.40;;;2.50;;
66327;SDS011;53133;52.862;6.602;2023-03-07T00:24:13;4.90;;;2.20;;
66327;SDS011;53133;52.862;6.602;2023-03-07T00:26:39;5.43;;;2.03;;
66327;SDS011;53133;52.862;6.602;2023-03-07T00:29:05;4.20;;;2.03;;
66327;SDS011;53133;52.862;6.602;2023-03-07T00:31:32;3.40;;;1.80;;
66327;SDS011;53133;52.862;6.602;2023-03-07T00:33:58;4.32;;;1.75;;
66327;SDS011;53133;52.862;6.602;2023-03-07T00:36:24;3.20;;;1.87;;
66327;SDS011;53133;52.862;6.602;2023-03-07T00:38:50;3.43;;;1.70;;
66327;SDS011;53133;52.862;6.602;2023-03-07T00:41:17;3.80;;;1.60;;
66327;SDS011;53133;52.862;6.602;2023-03-07T00:43:45;4.32;;;1.50;;
66327;SDS011;53133;52.862;6.602;2023-03-07T00:46:11;3.70;;;1.70;;
66327;SDS011;53133;52.862;6.602;2023-03-07T00:48:38;4.43;;;1.40;;
66327;SDS011;53133;52.862;6.602;2023-03-07T00:51:04;3.63;;;1.27;;
66327;SDS011;53133;52.862;6.602;2023-03-07T00:53:31;3.80;;;1.00;;
66327;SDS011;53133;52.862;6.602;2023-03-07T00:55:58;6.50;;;1.47;;
66327;SDS011;53133;52.862;6.602;2023-03-07T00:58:26;2.47;;;0.80;;
66327;SDS011;53133;52.862;6.602;2023-03-07T01:00:54;4.97;;;1.30;;
66327;SDS011;53133;52.862;6.602;2023-03-07T01:03:20;3.80;;;1.00;;
66327;SDS011;53133;52.862;6.602;2023-03-07T01:05:47;4.80;;;1.38;;
66327;SDS011;53133;52.862;6.602;2023-03-07T01:08:13;2.28;;;0.90;;
66327;SDS011;53133;52.862;6.602;2023-03-07T01:10:40;3.80;;;1.10;;
66327;SDS011;53133;52.862;6.602;2023-03-07T01:13:05;5.68;;;1.27;;
66327;SDS011;53133;52.862;6.602;2023-03-07T01:15:31;5.63;;;1.30;;
66327;SDS011;53133;52.862;6.602;2023-03-07T01:17:57;4.03;;;0.90;;
66327;SDS011;53133;52.862;6.602;2023-03-07T01:20:23;2.30;;;1.00;;
66327;SDS011;53133;52.862;6.602;2023-03-07T01:22:48;2.88;;;1.25;;
66327;SDS011;53133;52.862;6.602;2023-03-07T01:25:14;5.75;;;1.00;;
66327;SDS011;53133;52.862;6.602;2023-03-07T01:27:40;4.55;;;1.20;;
66327;SDS011;53133;52.862;6.602;2023-03-07T01:30:05;6.93;;;1.30;;
66327;SDS011;53133;52.862;6.602;2023-03-07T01:32:32;3.58;;;1.30;;
66327;SDS011;53133;52.862;6.602;2023-03-07T01:34:58;2.67;;;1.00;;
66327;SDS011;53133;52.862;6.602;2023-03-07T01:37:24;2.55;;;1.23;;
66327;SDS011;53133;52.862;6.602;2023-03-07T01:39:52;6.07;;;1.30;;
66327;SDS011;53133;52.862;6.602;2023-03-07T01:42:19;3.37;;;1.33;;
66327;SDS011;53133;52.862;6.602;2023-03-07T01:47:38;5.60;;;1.38;;
66327;SDS011;53133;52.862;6.602;2023-03-07T01:50:06;5.15;;;1.70;;
66327;SDS011;53133;52.862;6.602;2023-03-07T01:52:39;4.10;;;1.40;;
66327;SDS011;53133;52.862;6.602;2023-03-07T01:55:20;3.47;;;1.37;;
66327;SDS011;53133;52.862;6.602;2023-03-07T01:57:49;3.92;;;1.27;;
66327;SDS011;53133;52.862;6.602;2023-03-07T02:00:18;3.47;;;1.42;;
66327;SDS011;53133;52.862;6.602;2023-03-07T02:02:56;5.20;;;1.33;;
66327;SDS011;53133;52.862;6.602;2023-03-07T02:05:36;5.63;;;1.30;;
66327;SDS011;53133;52.862;6.602;2023-03-07T02:08:06;4.87;;;1.37;;
66327;SDS011;53133;52.862;6.602;2023-03-07T02:10:34;5.03;;;1.17;;
66327;SDS011;53133;52.862;6.602;2023-03-07T02:13:01;6.57;;;1.40;;
66327;SDS011;53133;52.862;6.602;2023-03-07T02:15:27;2.55;;;1.30;;
66327;SDS011;53133;52.862;6.602;2023-03-07T02:17:52;3.33;;;1.60;;
66327;SDS011;53133;52.862;6.602;2023-03-07T02:20:28;5.93;;;1.20;;
66327;SDS011;53133;52.862;6.602;2023-03-07T02:23:03;4.50;;;1.08;;
66327;SDS011;53133;52.862;6.602;2023-03-07T02:28:07;3.97;;;1.30;;
66327;SDS011;53133;52.862;6.602;2023-03-07T02:30:37;7.27;;;1.30;;
66327;SDS011;53133;52.862;6.602;2023-03-07T02:33:15;6.13;;;1.50;;
66327;SDS011;53133;52.862;6.602;2023-03-07T02:35:41;4.67;;;1.40;;
66327;SDS011;53133;52.862;6.602;2023-03-07T02:38:07;6.53;;;1.40;;
66327;SDS011;53133;52.862;6.602;2023-03-07T02:40:32;7.10;;;1.20;;
66327;SDS011;53133;52.862;6.602;2023-03-07T02:42:59;9.15;;;1.75;;
66327;SDS011;53133;52.862;6.602;2023-03-07T02:45:33;5.18;;;1.25;;
66327;SDS011;53133;52.862;6.602;2023-03-07T02:47:59;5.90;;;1.30;;
66327;SDS011;53133;52.862;6.602;2023-03-07T02:50:24;4.37;;;1.27;;
66327;SDS011;53133;52.862;6.602;2023-03-07T02:52:50;6.97;;;1.30;;
66327;SDS011;53133;52.862;6.602;2023-03-07T02:55:16;6.17;;;1.40;;
66327;SDS011;53133;52.862;6.602;2023-03-07T02:57:41;7.90;;;1.43;;
66327;SDS011;53133;52.862;6.602;2023-03-07T03:00:07;7.20;;;1.40;;
66327;SDS011;53133;52.862;6.602;2023-03-07T03:02:35;10.23;;;1.37;;
66327;SDS011;53133;52.862;6.602;2023-03-07T03:05:01;6.20;;;1.50;;
66327;SDS011;53133;52.862;6.602;2023-03-07T03:07:27;7.33;;;1.47;;
66327;SDS011;53133;52.862;6.602;2023-03-07T03:09:52;8.13;;;1.37;;
66327;SDS011;53133;52.862;6.602;2023-03-07T03:12:18;7.70;;;1.10;;
66327;SDS011;53133;52.862;6.602;2023-03-07T03:14:44;8.40;;;1.30;;
66327;SDS011;53133;52.862;6.602;2023-03-07T03:17:09;7.93;;;1.43;;
66327;SDS011;53133;52.862;6.602;2023-03-07T03:19:35;6.53;;;1.67;;
66327;SDS011;53133;52.862;6.602;2023-03-07T03:22:00;12.00;;;1.40;;
66327;SDS011;53133;52.862;6.602;2023-03-07T03:24:26;4.87;;;1.17;;
66327;SDS011;53133;52.862;6.602;2023-03-07T03:26:54;9.47;;;1.07;;
66327;SDS011;53133;52.862;6.602;2023-03-07T03:29:21;9.13;;;1.40;;
66327;SDS011;53133;52.862;6.602;2023-03-07T03:31:46;8.30;;;1.50;;
66327;SDS011;53133;52.862;6.602;2023-03-07T03:34:12;9.03;;;1.10;;
66327;SDS011;53133;52.862;6.602;2023-03-07T03:36:38;7.93;;;1.40;;
66327;SDS011;53133;52.862;6.602;2023-03-07T03:39:03;11.70;;;1.80;;
66327;SDS011;53133;52.862;6.602;2023-03-07T03:41:34;5.75;;;1.08;;
66327;SDS011;53133;52.862;6.602;2023-03-07T03:44:01;8.00;;;1.47;;
66327;SDS011;53133;52.862;6.602;2023-03-07T03:46:27;10.93;;;1.50;;
66327;SDS011;53133;52.862;6.602;2023-03-07T03:48:53;12.43;;;2.00;;
66327;SDS011;53133;52.862;6.602;2023-03-07T03:51:20;15.30;;;1.70;;
66327;SDS011;53133;52.862;6.602;2023-03-07T03:53:46;11.60;;;1.93;;
66327;SDS011;53133;52.862;6.602;2023-03-07T03:56:13;9.17;;;1.20;;
66327;SDS011;53133;52.862;6.602;2023-03-07T03:58:42;8.87;;;1.50;;
66327;SDS011;53133;52.862;6.602;2023-03-07T04:01:08;9.23;;;1.80;;
66327;SDS011;53133;52.862;6.602;2023-03-07T04:03:39;9.53;;;1.40;;
66327;SDS011;53133;52.862;6.602;2023-03-07T04:06:08;9.00;;;1.27;;
66327;SDS011;53133;52.862;6.602;2023-03-07T04:08:35;8.20;;;1.30;;
66327;SDS011;53133;52.862;6.602;2023-03-07T04:11:01;8.67;;;1.37;;
66327;SDS011;53133;52.862;6.602;2023-03-07T04:13:28;6.80;;;1.30;;
66327;SDS011;53133;52.862;6.602;2023-03-07T04:15:55;7.33;;;1.30;;
66327;SDS011;53133;52.862;6.602;2023-03-07T04:18:20;7.37;;;1.07;;
66327;SDS011;53133;52.862;6.602;2023-03-07T04:20:47;12.70;;;1.30;;
66327;SDS011;53133;52.862;6.602;2023-03-07T04:23:14;7.57;;;1.43;;
66327;SDS011;53133;52.862;6.602;2023-03-07T04:25:45;10.77;;;1.17;;
66327;SDS011;53133;52.862;6.602;2023-03-07T04:28:15;10.37;;;1.40;;
66327;SDS011;53133;52.862;6.602;2023-03-07T04:30:42;12.70;;;2.17;;
66327;SDS011;53133;52.862;6.602;2023-03-07T04:33:08;10.07;;;1.20;;
66327;SDS011;53133;52.862;6.602;2023-03-07T04:35:33;10.57;;;1.60;;
66327;SDS011;53133;52.862;6.602;2023-03-07T04:37:59;15.97;;;1.77;;
66327;SDS011;53133;52.862;6.602;2023-03-07T04:40:25;8.93;;;1.57;;
66327;SDS011;53133;52.862;6.602;2023-03-07T04:42:50;10.80;;;1.50;;
66327;SDS011;53133;52.862;6.602;2023-03-07T04:45:16;9.63;;;1.93;;
66327;SDS011;53133;52.862;6.602;2023-03-07T04:47:41;9.80;;;1.40;;
66327;SDS011;53133;52.862;6.602;2023-03-07T04:50:07;12.93;;;1.97;;
66327;SDS011;53133;52.862;6.602;2023-03-07T04:52:33;11.80;;;1.47;;
66327;SDS011;53133;52.862;6.602;2023-03-07T04:54:59;9.70;;;1.50;;
66327;SDS011;53133;52.862;6.602;2023-03-07T04:57:24;5.90;;;1.17;;
66327;SDS011;53133;52.862;6.602;2023-03-07T04:59:50;11.67;;;1.40;;
66327;SDS011;53133;52.862;6.602;2023-03-07T05:02:15;14.97;;;1.77;;
66327;SDS011;53133;52.862;6.602;2023-03-07T05:04:41;8.50;;;1.33;;
66327;SDS011;53133;52.862;6.602;2023-03-07T05:07:07;6.37;;;1.30;;
66327;SDS011;53133;52.862;6.602;2023-03-07T05:09:32;6.27;;;1.60;;
66327;SDS011;53133;52.862;6.602;2023-03-07T05:11:58;4.00;;;1.10;;
66327;SDS011;53133;52.862;6.602;2023-03-07T05:14:24;8.80;;;1.70;;
66327;SDS011;53133;52.862;6.602;2023-03-07T05:16:49;15.03;;;1.40;;
66327;SDS011;53133;52.862;6.602;2023-03-07T05:19:15;6.10;;;1.00;;
66327;SDS011;53133;52.862;6.602;2023-03-07T05:21:41;8.83;;;1.30;;
66327;SDS011;53133;52.862;6.602;2023-03-07T05:24:08;8.33;;;1.30;;
66327;SDS011;53133;52.862;6.602;2023-03-07T05:26:34;9.80;;;1.70;;
66327;SDS011;53133;52.862;6.602;2023-03-07T05:29:00;8.17;;;1.30;;
66327;SDS011;53133;52.862;6.602;2023-03-07T05:31:26;8.33;;;1.43;;
66327;SDS011;53133;52.862;6.602;2023-03-07T05:33:52;8.63;;;1.17;;
66327;SDS011;53133;52.862;6.602;2023-03-07T05:36:18;11.17;;;1.30;;
66327;SDS011;53133;52.862;6.602;2023-03-07T05:38:43;9.07;;;1.40;;
66327;SDS011;53133;52.862;6.602;2023-03-07T05:41:09;6.07;;;1.20;;
66327;SDS011;53133;52.862;6.602;2023-03-07T05:43:35;7.40;;;1.20;;
66327;SDS011;53133;52.862;6.602;2023-03-07T05:46:00;9.00;;;1.37;;
66327;SDS011;53133;52.862;6.602;2023-03-07T05:48:26;9.00;;;2.07;;
66327;SDS011;53133;52.862;6.602;2023-03-07T05:50:52;6.53;;;1.40;;
66327;SDS011;53133;52.862;6.602;2023-03-07T05:53:17;8.50;;;1.10;;
66327;SDS011;53133;52.862;6.602;2023-03-07T05:55:43;12.67;;;1.57;;
66327;SDS011;53133;52.862;6.602;2023-03-07T05:58:09;6.00;;;1.43;;
66327;SDS011;53133;52.862;6.602;2023-03-07T06:00:35;6.37;;;1.20;;
66327;SDS011;53133;52.862;6.602;2023-03-07T06:03:03;9.33;;;1.17;;
66327;SDS011;53133;52.862;6.602;2023-03-07T06:05:28;9.07;;;1.17;;
66327;SDS011;53133;52.862;6.602;2023-03-07T06:07:54;10.73;;;1.40;;
66327;SDS011;53133;52.862;6.602;2023-03-07T06:10:20;10.67;;;1.93;;
66327;SDS011;53133;52.862;6.602;2023-03-07T06:12:49;11.47;;;1.53;;
66327;SDS011;53133;52.862;6.602;2023-03-07T06:15:15;9.60;;;1.37;;
66327;SDS011;53133;52.862;6.602;2023-03-07T06:17:41;6.90;;;1.10;;
66327;SDS011;53133;52.862;6.602;2023-03-07T06:20:07;10.47;;;1.10;;
66327;SDS011;53133;52.862;6.602;2023-03-07T06:22:33;10.67;;;1.43;;
66327;SDS011;53133;52.862;6.602;2023-03-07T06:25:02;10.77;;;1.60;;
66327;SDS011;53133;52.862;6.602;2023-03-07T06:27:32;7.40;;;1.43;;
66327;SDS011;53133;52.862;6.602;2023-03-07T06:29:58;10.47;;;1.50;;
66327;SDS011;53133;52.862;6.602;2023-03-07T06:32:23;11.37;;;1.70;;
66327;SDS011;53133;52.862;6.602;2023-03-07T06:34:49;9.63;;;1.40;;
66327;SDS011;53133;52.862;6.602;2023-03-07T06:37:15;10.50;;;1.73;;
66327;SDS011;53133;52.862;6.602;2023-03-07T06:39:41;6.40;;;1.10;;
66327;SDS011;53133;52.862;6.602;2023-03-07T06:42:06;4.87;;;1.20;;
66327;SDS011;53133;52.862;6.602;2023-03-07T06:44:32;3.23;;;0.90;;
66327;SDS011;53133;52.862;6.602;2023-03-07T06:46:57;9.30;;;1.60;;
66327;SDS011;53133;52.862;6.602;2023-03-07T06:49:23;6.93;;;1.13;;
66327;SDS011;53133;52.862;6.602;2023-03-07T06:51:49;9.13;;;1.30;;
66327;SDS011;53133;52.862;6.602;2023-03-07T06:54:14;6.40;;;1.17;;
66327;SDS011;53133;52.862;6.602;2023-03-07T06:56:40;7.23;;;1.07;;
66327;SDS011;53133;52.862;6.602;2023-03-07T06:59:05;9.57;;;1.40;;
66327;SDS011;53133;52.862;6.602;2023-03-07T07:01:31;9.17;;;1.57;;
66327;SDS011;53133;52.862;6.602;2023-03-07T07:03:56;5.73;;;1.40;;
66327;SDS011;53133;52.862;6.602;2023-03-07T07:06:22;10.67;;;1.30;;
66327;SDS011;53133;52.862;6.602;2023-03-07T07:08:48;6.23;;;1.20;;
66327;SDS011;53133;52.862;6.602;2023-03-07T07:11:17;8.27;;;1.03;;
66327;SDS011;53133;52.862;6.602;2023-03-07T07:13:42;11.40;;;1.33;;
66327;SDS011;53133;52.862;6.602;2023-03-07T07:16:09;8.73;;;1.70;;
66327;SDS011;53133;52.862;6.602;2023-03-07T07:18:35;6.60;;;1.63;;
66327;SDS011;53133;52.862;6.602;2023-03-07T07:21:01;13.80;;;1.40;;
66327;SDS011;53133;52.862;6.602;2023-03-07T07:23:29;6.60;;;1.80;;
66327;SDS011;53133;52.862;6.602;2023-03-07T07:25:54;8.90;;;1.60;;
66327;SDS011;53133;52.862;6.602;2023-03-07T07:28:20;4.70;;;1.00;;
66327;SDS011;53133;52.862;6.602;2023-03-07T07:30:46;10.60;;;1.43;;
66327;SDS011;53133;52.862;6.602;2023-03-07T07:33:11;10.30;;;1.70;;
66327;SDS011;53133;52.862;6.602;2023-03-07T07:35:37;8.57;;;1.60;;
66327;SDS011;53133;52.862;6.602;2023-03-07T07:38:03;13.40;;;1.40;;
66327;SDS011;53133;52.862;6.602;2023-03-07T07:40:29;9.90;;;1.67;;
66327;SDS011;53133;52.862;6.602;2023-03-07T07:42:54;9.07;;;1.47;;
66327;SDS011;53133;52.862;6.602;2023-03-07T07:45:20;8.97;;;2.17;;
66327;SDS011;53133;52.862;6.602;2023-03-07T07:47:50;8.37;;;1.63;;
66327;SDS011;53133;52.862;6.602;2023-03-07T07:50:16;7.03;;;1.40;;
66327;SDS011;53133;52.862;6.602;2023-03-07T07:52:44;7.87;;;1.50;;
66327;SDS011;53133;52.862;6.602;2023-03-07T07:55:10;9.67;;;1.60;;
66327;SDS011;53133;52.862;6.602;2023-03-07T07:57:37;6.80;;;1.23;;
66327;SDS011;53133;52.862;6.602;2023-03-07T08:00:03;11.63;;;1.50;;
66327;SDS011;53133;52.862;6.602;2023-03-07T08:02:29;5.60;;;1.30;;
66327;SDS011;53133;52.862;6.602;2023-03-07T08:04:55;7.60;;;1.17;;
66327;SDS011;53133;52.862;6.602;2023-03-07T08:07:21;19.13;;;1.95;;
66327;SDS011;53133;52.862;6.602;2023-03-07T08:09:46;7.60;;;1.27;;
66327;SDS011;53133;52.862;6.602;2023-03-07T08:12:12;6.37;;;1.20;;
66327;SDS011;53133;52.862;6.602;2023-03-07T08:14:38;11.30;;;1.37;;
66327;SDS011;53133;52.862;6.602;2023-03-07T08:17:04;4.53;;;1.30;;
66327;SDS011;53133;52.862;6.602;2023-03-07T08:19:30;12.85;;;1.40;;
66327;SDS011;53133;52.862;6.602;2023-03-07T08:21:55;7.60;;;1.40;;
66327;SDS011;53133;52.862;6.602;2023-03-07T08:24:22;7.57;;;1.40;;
66327;SDS011;53133;52.862;6.602;2023-03-07T08:26:48;6.67;;;1.17;;
66327;SDS011;53133;52.862;6.602;2023-03-07T08:29:14;6.57;;;1.23;;
66327;SDS011;53133;52.862;6.602;2023-03-07T08:31:41;8.50;;;1.40;;
66327;SDS011;53133;52.862;6.602;2023-03-07T08:34:08;4.93;;;1.10;;
66327;SDS011;53133;52.862;6.602;2023-03-07T08:36:33;7.00;;;1.33;;
66327;SDS011;53133;52.862;6.602;2023-03-07T08:38:59;8.88;;;1.63;;
66327;SDS011;53133;52.862;6.602;2023-03-07T08:41:24;9.60;;;1.40;;
66327;SDS011;53133;52.862;6.602;2023-03-07T08:43:50;5.85;;;1.30;;
66327;SDS011;53133;52.862;6.602;2023-03-07T08:46:17;8.52;;;1.50;;
66327;SDS011;53133;52.862;6.602;2023-03-07T08:48:42;6.10;;;1.73;;
66327;SDS011;53133;52.862;6.602;2023-03-07T08:51:10;6.80;;;1.35;;
66327;SDS011;53133;52.862;6.602;2023-03-07T08:53:39;7.93;;;1.60;;
66327;SDS011;53133;52.862;6.602;2023-03-07T08:56:07;8.67;;;1.60;;
66327;SDS011;53133;52.862;6.602;2023-03-07T08:58:34;8.93;;;2.13;;
66327;SDS011;53133;52.862;6.602;2023-03-07T09:00:59;12.07;;;1.80;;
66327;SDS011;53133;52.862;6.602;2023-03-07T09:03:25;10.53;;;1.60;;
66327;SDS011;53133;52.862;6.602;2023-03-07T09:05:51;10.23;;;1.80;;
66327;SDS011;53133;52.862;6.602;2023-03-07T09:08:16;8.98;;;1.85;;
66327;SDS011;53133;52.862;6.602;2023-03-07T09:10:42;7.43;;;1.63;;
66327;SDS011;53133;52.862;6.602;2023-03-07T09:13:08;6.55;;;1.60;;
66327;SDS011;53133;52.862;6.602;2023-03-07T09:15:36;10.35;;;1.83;;
66327;SDS011;53133;52.862;6.602;2023-03-07T09:18:04;7.43;;;1.97;;
66327;SDS011;53133;52.862;6.602;2023-03-07T09:20:29;8.93;;;1.65;;
66327;SDS011;53133;52.862;6.602;2023-03-07T09:22:55;12.53;;;1.83;;
66327;SDS011;53133;52.862;6.602;2023-03-07T09:25:20;8.10;;;1.70;;
66327;SDS011;53133;52.862;6.602;2023-03-07T09:27:46;8.38;;;1.45;;
66327;SDS011;53133;52.862;6.602;2023-03-07T09:30:13;8.32;;;1.60;;
66327;SDS011;53133;52.862;6.602;2023-03-07T09:32:39;7.75;;;1.30;;
66327;SDS011;53133;52.862;6.602;2023-03-07T09:35:05;7.18;;;1.25;;
66327;SDS011;53133;52.862;6.602;2023-03-07T09:37:31;8.07;;;1.45;;
66327;SDS011;53133;52.862;6.602;2023-03-07T09:39:56;9.05;;;1.45;;
66327;SDS011;53133;52.862;6.602;2023-03-07T09:53:23;5.03;;;1.02;;
66327;SDS011;53133;52.862;6.602;2023-03-07T09:56:00;6.57;;;1.15;;
66327;SDS011;53133;52.862;6.602;2023-03-07T09:58:29;2.88;;;1.00;;
66327;SDS011;53133;52.862;6.602;2023-03-07T10:00:55;4.45;;;0.90;;
66327;SDS011;53133;52.862;6.602;2023-03-07T10:06:13;4.85;;;1.10;;
66327;SDS011;53133;52.862;6.602;2023-03-07T10:08:43;4.63;;;1.05;;
66327;SDS011;53133;52.862;6.602;2023-03-07T10:19:39;4.95;;;1.10;;
66327;SDS011;53133;52.862;6.602;2023-03-07T10:22:22;5.05;;;1.15;;
66327;SDS011;53133;52.862;6.602;2023-03-07T10:25:38;8.13;;;1.25;;
66327;SDS011;53133;52.862;6.602;2023-03-07T10:27:47;7.60;;;1.00;;
66327;SDS011;53133;52.862;6.602;2023-03-07T10:30:17;5.10;;;0.93;;
66327;SDS011;53133;52.862;6.602;2023-03-07T10:32:52;7.88;;;1.45;;
66327;SDS011;53133;52.862;6.602;2023-03-07T10:35:23;5.30;;;1.10;;
66327;SDS011;53133;52.862;6.602;2023-03-07T10:40:53;3.97;;;1.20;;
66327;SDS011;53133;52.862;6.602;2023-03-07T10:43:24;6.20;;;1.13;;
66327;SDS011;53133;52.862;6.602;2023-03-07T10:46:00;3.92;;;0.90;;
66327;SDS011;53133;52.862;6.602;2023-03-07T10:48:33;5.22;;;1.25;;
66327;SDS011;53133;52.862;6.602;2023-03-07T10:53:44;6.70;;;1.40;;
66327;SDS011;53133;52.862;6.602;2023-03-07T10:56:14;5.88;;;2.25;;
66327;SDS011;53133;52.862;6.602;2023-03-07T10:58:58;5.70;;;1.38;;
66327;SDS011;53133;52.862;6.602;2023-03-07T11:01:25;4.82;;;1.20;;
66327;SDS011;53133;52.862;6.602;2023-03-07T11:04:04;2.80;;;1.50;;
66327;SDS011;53133;52.862;6.602;2023-03-07T11:06:50;6.25;;;1.30;;
66327;SDS011;53133;52.862;6.602;2023-03-07T11:09:32;6.90;;;1.10;;
66327;SDS011;53133;52.862;6.602;2023-03-07T11:12:10;7.18;;;1.00;;
66327;SDS011;53133;52.862;6.602;2023-03-07T11:17:21;7.40;;;1.20;;
66327;SDS011;53133;52.862;6.602;2023-03-07T11:19:53;8.20;;;1.73;;
66327;SDS011;53133;52.862;6.602;2023-03-07T11:22:27;4.13;;;1.13;;
66327;SDS011;53133;52.862;6.602;2023-03-07T11:27:48;5.32;;;1.20;;
66327;SDS011;53133;52.862;6.602;2023-03-07T11:33:04;6.07;;;1.10;;
66327;SDS011;53133;52.862;6.602;2023-03-07T11:36:02;7.75;;;1.80;;
66327;SDS011;53133;52.862;6.602;2023-03-07T11:38:51;10.73;;;3.42;;
66327;SDS011;53133;52.862;6.602;2023-03-07T11:41:31;3.88;;;1.45;;
66327;SDS011;53133;52.862;6.602;2023-03-07T11:55:39;5.78;;;1.10;;
66327;SDS011;53133;52.862;6.602;2023-03-07T12:25:26;9.23;;;1.90;;
66327;SDS011;53133;52.862;6.602;2023-03-07T12:33:22;8.57;;;2.90;;
66327;SDS011;53133;52.862;6.602;2023-03-07T12:35:57;10.43;;;2.40;;
66327;SDS011;53133;52.862;6.602;2023-03-07T12:38:31;4.83;;;1.50;;
66327;SDS011;53133;52.862;6.602;2023-03-07T12:41:18;6.53;;;1.23;;
66327;SDS011;53133;52.862;6.602;2023-03-07T12:43:47;7.35;;;1.20;;
66327;SDS011;53133;52.862;6.602;2023-03-07T12:46:26;6.13;;;1.25;;
66327;SDS011;53133;52.862;6.602;2023-03-07T12:51:41;8.68;;;1.65;;
66327;SDS011;53133;52.862;6.602;2023-03-07T12:54:17;6.30;;;1.40;;
66327;SDS011;53133;52.862;6.602;2023-03-07T12:57:01;8.63;;;1.90;;
66327;SDS011;53133;52.862;6.602;2023-03-07T12:59:30;8.10;;;1.77;;
66327;SDS011;53133;52.862;6.602;2023-03-07T13:04:43;5.78;;;1.25;;
66327;SDS011;53133;52.862;6.602;2023-03-07T13:07:12;6.82;;;1.70;;
66327;SDS011;53133;52.862;6.602;2023-03-07T13:09:42;8.10;;;1.85;;
66327;SDS011;53133;52.862;6.602;2023-03-07T13:17:10;8.55;;;1.73;;
66327;SDS011;53133;52.862;6.602;2023-03-07T13:20:09;10.10;;;1.58;;
66327;SDS011;53133;52.862;6.602;2023-03-07T13:22:59;6.28;;;1.20;;
66327;SDS011;53133;52.862;6.602;2023-03-07T13:25:40;9.55;;;1.90;;
66327;SDS011;53133;52.862;6.602;2023-03-07T13:31:36;7.28;;;2.13;;
66327;SDS011;53133;52.862;6.602;2023-03-07T13:33:50;9.23;;;3.55;;
66327;SDS011;53133;52.862;6.602;2023-03-07T13:36:30;9.18;;;2.33;;
66327;SDS011;53133;52.862;6.602;2023-03-07T13:39:02;6.30;;;1.17;;
66327;SDS011;53133;52.862;6.602;2023-03-07T13:41:45;6.20;;;1.60;;
66327;SDS011;53133;52.862;6.602;2023-03-07T13:47:31;5.30;;;1.65;;
66327;SDS011;53133;52.862;6.602;2023-03-07T13:53:15;4.72;;;1.30;;
66327;SDS011;53133;52.862;6.602;2023-03-07T13:55:46;3.30;;;1.10;;
66327;SDS011;53133;52.862;6.602;2023-03-07T13:58:31;6.97;;;2.30;;
66327;SDS011;53133;52.862;6.602;2023-03-07T14:01:04;7.65;;;2.20;;
66327;SDS011;53133;52.862;6.602;2023-03-07T14:03:44;6.65;;;1.77;;
66327;SDS011;53133;52.862;6.602;2023-03-07T14:06:36;8.20;;;1.40;;
66327;SDS011;53133;52.862;6.602;2023-03-07T14:09:16;5.05;;;1.45;;
66327;SDS011;53133;52.862;6.602;2023-03-07T14:11:48;9.90;;;1.77;;
66327;SDS011;53133;52.862;6.602;2023-03-07T14:24:59;3.92;;;1.42;;
66327;SDS011;53133;52.862;6.602;2023-03-07T14:27:50;6.90;;;1.23;;
66327;SDS011;53133;52.862;6.602;2023-03-07T14:30:18;7.18;;;1.20;;
66327;SDS011;53133;52.862;6.602;2023-03-07T14:32:45;5.35;;;1.17;;
66327;SDS011;53133;52.862;6.602;2023-03-07T14:35:10;5.78;;;0.90;;
66327;SDS011;53133;52.862;6.602;2023-03-07T14:37:39;7.30;;;1.10;;
66327;SDS011;53133;52.862;6.602;2023-03-07T14:42:51;4.53;;;0.68;;
66327;SDS011;53133;52.862;6.602;2023-03-07T14:45:39;2.10;;;0.60;;
66327;SDS011;53133;52.862;6.602;2023-03-07T14:48:26;3.95;;;0.82;;
66327;SDS011;53133;52.862;6.602;2023-03-07T14:53:38;5.78;;;0.70;;
66327;SDS011;53133;52.862;6.602;2023-03-07T14:56:06;3.92;;;1.23;;
66327;SDS011;53133;52.862;6.602;2023-03-07T14:58:34;3.53;;;0.80;;
66327;SDS011;53133;52.862;6.602;2023-03-07T15:01:12;2.88;;;0.60;;
66327;SDS011;53133;52.862;6.602;2023-03-07T15:03:49;6.47;;;0.75;;
66327;SDS011;53133;52.862;6.602;2023-03-07T15:06:18;2.30;;;0.60;;
66327;SDS011;53133;52.862;6.602;2023-03-07T15:08:46;2.60;;;0.50;;
66327;SDS011;53133;52.862;6.602;2023-03-07T15:11:25;3.83;;;0.63;;
66327;SDS011;53133;52.862;6.602;2023-03-07T15:14:04;2.15;;;0.95;;
66327;SDS011;53133;52.862;6.602;2023-03-07T15:16:45;1.80;;;0.63;;
66327;SDS011;53133;52.862;6.602;2023-03-07T15:19:26;4.82;;;1.05;;
66327;SDS011;53133;52.862;6.602;2023-03-07T15:22:01;3.92;;;1.50;;
66327;SDS011;53133;52.862;6.602;2023-03-07T15:24:36;2.60;;;0.80;;
66327;SDS011;53133;52.862;6.602;2023-03-07T15:27:04;7.05;;;1.63;;
66327;SDS011;53133;52.862;6.602;2023-03-07T15:29:33;6.13;;;5.13;;
66327;SDS011;53133;52.862;6.602;2023-03-07T15:32:00;5.47;;;1.77;;
66327;SDS011;53133;52.862;6.602;2023-03-07T15:34:38;4.53;;;1.40;;
66327;SDS011;53133;52.862;6.602;2023-03-07T15:39:55;6.70;;;1.15;;
66327;SDS011;53133;52.862;6.602;2023-03-07T15:47:53;5.88;;;1.08;;
66327;SDS011;53133;52.862;6.602;2023-03-07T15:50:21;4.70;;;0.95;;
66327;SDS011;53133;52.862;6.602;2023-03-07T15:52:52;4.13;;;0.60;;
66327;SDS011;53133;52.862;6.602;2023-03-07T15:55:20;1.77;;;0.77;;
66327;SDS011;53133;52.862;6.602;2023-03-07T15:57:50;7.47;;;0.90;;
66327;SDS011;53133;52.862;6.602;2023-03-07T16:00:35;6.57;;;2.60;;
66327;SDS011;53133;52.862;6.602;2023-03-07T16:03:23;2.67;;;1.20;;
66327;SDS011;53133;52.862;6.602;2023-03-07T16:05:53;3.45;;;0.68;;
66327;SDS011;53133;52.862;6.602;2023-03-07T16:08:20;2.97;;;1.15;;
66327;SDS011;53133;52.862;6.602;2023-03-07T16:10:49;5.03;;;1.70;;
66327;SDS011;53133;52.862;6.602;2023-03-07T16:13:30;4.00;;;0.75;;
66327;SDS011;53133;52.862;6.602;2023-03-07T16:16:06;4.30;;;1.10;;
66327;SDS011;53133;52.862;6.602;2023-03-07T16:18:43;3.67;;;1.00;;
66327;SDS011;53133;52.862;6.602;2023-03-07T16:21:12;4.57;;;1.05;;
66327;SDS011;53133;52.862;6.602;2023-03-07T16:23:39;5.10;;;1.52;;
66327;SDS011;53133;52.862;6.602;2023-03-07T16:26:04;4.18;;;1.50;;
66327;SDS011;53133;52.862;6.602;2023-03-07T16:28:30;4.90;;;1.38;;
66327;SDS011;53133;52.862;6.602;2023-03-07T16:30:57;4.93;;;0.82;;
66327;SDS011;53133;52.862;6.602;2023-03-07T16:33:23;5.95;;;1.02;;
66327;SDS011;53133;52.862;6.602;2023-03-07T16:35:48;7.47;;;3.10;;
66327;SDS011;53133;52.862;6.602;2023-03-07T16:38:14;2.58;;;0.68;;
66327;SDS011;53133;52.862;6.602;2023-03-07T16:40:41;6.73;;;1.10;;
66327;SDS011;53133;52.862;6.602;2023-03-07T16:43:53;3.92;;;0.70;;
66327;SDS011;53133;52.862;6.602;2023-03-07T16:46:13;3.15;;;0.70;;
66327;SDS011;53133;52.862;6.602;2023-03-07T16:48:40;6.57;;;0.82;;
66327;SDS011;53133;52.862;6.602;2023-03-07T16:51:08;3.95;;;1.50;;
66327;SDS011;53133;52.862;6.602;2023-03-07T16:53:45;1.83;;;1.05;;
66327;SDS011;53133;52.862;6.602;2023-03-07T16:58:51;2.72;;;1.73;;
66327;SDS011;53133;52.862;6.602;2023-03-07T17:01:17;4.73;;;1.60;;
66327;SDS011;53133;52.862;6.602;2023-03-07T17:03:43;13.60;;;10.90;;
66327;SDS011;53133;52.862;6.602;2023-03-07T17:06:11;15.35;;;12.57;;
66327;SDS011;53133;52.862;6.602;2023-03-07T17:08:39;11.10;;;8.30;;
66327;SDS011;53133;52.862;6.602;2023-03-07T17:11:09;12.13;;;11.00;;